createdAt,value
2017-12-06T00:01:41.189Z,12.03
2017-12-06T00:06:43.726Z,13.73
2017-12-06T00:11:46.297Z,16.97
2017-12-06T00:16:48.830Z,15.93
2017-12-06T00:21:51.373Z,16.33
2017-12-06T00:26:53.934Z,12.13
2017-12-06T00:31:56.471Z,14.50
2017-12-06T00:36:59.795Z,16.63
2017-12-06T00:42:02.339Z,18.73
2017-12-06T00:47:04.883Z,13.47
2017-12-06T00:52:08.177Z,15.07
2017-12-06T00:57:10.712Z,17.73
2017-12-06T01:02:13.250Z,16.50
2017-12-06T01:07:15.807Z,10.80
2017-12-06T01:12:18.342Z,11.47
2017-12-06T01:17:20.890Z,13.93
2017-12-06T01:22:24.191Z,14.13
2017-12-06T01:27:27.506Z,14.37
2017-12-06T01:32:30.039Z,15.73
2017-12-06T01:37:32.575Z,16.33
2017-12-06T01:42:35.130Z,20.37
2017-12-06T01:47:37.661Z,14.50
2017-12-06T01:52:40.193Z,12.00
2017-12-06T01:57:42.746Z,11.90
2017-12-06T02:02:45.278Z,16.50
2017-12-06T02:07:47.826Z,12.80
2017-12-06T02:12:50.371Z,12.40
2017-12-06T02:17:52.915Z,21.10
2017-12-06T02:22:55.450Z,16.87
2017-12-06T02:27:57.986Z,12.37
2017-12-06T02:33:01.279Z,15.00
2017-12-06T02:38:03.828Z,11.53
2017-12-06T02:43:18.222Z,13.37
2017-12-06T02:48:20.761Z,12.37
2017-12-06T02:53:23.298Z,14.43
2017-12-06T02:58:25.844Z,13.30
2017-12-06T03:03:28.382Z,11.13
2017-12-06T03:08:30.906Z,17.97
2017-12-06T03:13:33.443Z,17.77
2017-12-06T03:18:36.011Z,23.80
2017-12-06T03:23:38.552Z,19.27
2017-12-06T03:28:41.078Z,12.17
2017-12-06T03:33:43.614Z,15.63
2017-12-06T03:38:46.166Z,13.57
2017-12-06T03:43:49.471Z,10.60
2017-12-06T03:48:52.010Z,13.40
2017-12-06T03:53:54.550Z,18.63
2017-12-06T03:58:57.088Z,15.90
2017-12-06T04:03:59.610Z,14.20
2017-12-06T04:09:02.146Z,16.97
2017-12-06T04:14:04.711Z,14.63
2017-12-06T04:19:07.253Z,16.80
2017-12-06T04:24:10.546Z,18.20
2017-12-06T04:29:13.099Z,16.97
2017-12-06T04:34:15.643Z,17.70
2017-12-06T04:39:18.178Z,14.53
2017-12-06T04:44:20.713Z,17.77
2017-12-06T04:49:23.258Z,15.00
2017-12-06T04:54:25.795Z,15.20
2017-12-06T04:59:28.326Z,17.93
2017-12-06T05:04:30.867Z,17.83
2017-12-06T05:09:34.258Z,13.10
2017-12-06T05:14:36.814Z,17.00
2017-12-06T05:19:39.375Z,14.53
2017-12-06T05:24:41.906Z,20.43
2017-12-06T05:29:44.435Z,20.37
2017-12-06T05:34:46.970Z,16.10
2017-12-06T05:39:49.511Z,13.40
2017-12-06T05:44:52.046Z,16.10
2017-12-06T05:49:54.591Z,16.40
2017-12-06T05:54:57.139Z,12.77
2017-12-06T05:59:59.670Z,15.80
2017-12-06T06:05:02.211Z,14.40
2017-12-06T06:10:04.755Z,17.10
2017-12-06T06:15:07.287Z,16.07
2017-12-06T06:20:09.822Z,16.17
2017-12-06T06:25:12.382Z,16.33
2017-12-06T06:30:14.913Z,15.60
2017-12-06T06:35:17.446Z,12.93
2017-12-06T06:40:19.991Z,11.30
2017-12-06T06:45:22.523Z,13.80
2017-12-06T06:50:25.073Z,17.90
2017-12-06T06:55:27.610Z,13.33
2017-12-06T07:00:30.194Z,10.47
2017-12-06T07:05:32.722Z,9.93
2017-12-06T07:10:35.255Z,13.47
2017-12-06T07:15:38.561Z,12.27
2017-12-06T07:20:41.095Z,12.27
2017-12-06T07:25:43.650Z,18.30
2017-12-06T07:30:46.195Z,13.53
2017-12-06T07:35:48.735Z,11.13
2017-12-06T07:40:51.270Z,9.27
2017-12-06T07:45:53.824Z,11.00
2017-12-06T07:50:56.350Z,13.30
2017-12-06T07:55:58.887Z,12.00
2017-12-06T08:01:01.438Z,12.87
2017-12-06T08:06:03.958Z,8.87
2017-12-06T08:11:06.491Z,12.87
2017-12-06T08:16:09.038Z,19.23
2017-12-06T08:21:12.358Z,22.33
2017-12-06T08:26:14.898Z,15.03
2017-12-06T08:31:17.440Z,19.77
2017-12-06T08:36:19.981Z,16.17
2017-12-06T08:41:22.514Z,22.77
2017-12-06T08:46:25.064Z,26.13
2017-12-06T08:51:27.590Z,20.13
2017-12-06T08:56:30.146Z,20.50
2017-12-06T09:01:32.689Z,17.87
2017-12-06T09:06:35.233Z,23.53
2017-12-06T09:11:37.766Z,19.20
2017-12-06T09:16:40.314Z,23.63
2017-12-06T09:21:42.906Z,20.97
2017-12-06T09:26:45.454Z,23.67
2017-12-06T09:31:47.982Z,20.50
2017-12-06T09:36:50.539Z,19.43
2017-12-06T09:41:53.847Z,24.67
2017-12-06T09:46:56.390Z,22.13
2017-12-06T09:51:58.939Z,25.87
2017-12-06T09:57:01.475Z,16.67
2017-12-06T10:02:04.103Z,17.77
2017-12-06T10:07:06.651Z,27.10
2017-12-06T10:12:09.207Z,17.90
2017-12-06T10:17:11.755Z,21.67
2017-12-06T10:22:14.306Z,17.67
2017-12-06T10:27:16.843Z,19.47
2017-12-06T10:32:19.381Z,18.93
2017-12-06T10:37:21.914Z,19.03
2017-12-06T10:42:24.454Z,28.40
2017-12-06T10:47:26.987Z,17.10
2017-12-06T10:52:29.527Z,16.87
2017-12-06T10:57:32.075Z,17.17
2017-12-06T11:02:34.658Z,19.37
2017-12-06T11:07:37.298Z,16.87
2017-12-06T11:12:39.833Z,15.50
2017-12-06T11:17:42.371Z,19.90
2017-12-06T11:22:44.922Z,15.00
2017-12-06T11:27:48.230Z,14.53
2017-12-06T11:32:50.762Z,16.07
2017-12-06T11:37:53.315Z,15.83
2017-12-06T11:42:55.855Z,15.50
2017-12-06T11:47:58.394Z,12.27
2017-12-06T11:53:00.930Z,20.47
2017-12-06T11:58:04.232Z,12.10
2017-12-06T12:03:06.767Z,14.63
2017-12-06T12:08:09.311Z,9.97
2017-12-06T12:13:11.850Z,12.50
2017-12-06T12:18:14.399Z,12.30
2017-12-06T12:23:16.934Z,15.80
2017-12-06T12:28:20.244Z,17.57
2017-12-06T12:33:22.770Z,13.53
2017-12-06T12:38:25.318Z,17.70
2017-12-06T12:43:27.873Z,15.00
2017-12-06T12:48:30.411Z,13.40
2017-12-06T12:53:32.946Z,24.53
2017-12-06T12:58:35.487Z,14.90
2017-12-06T13:03:38.040Z,17.93
2017-12-06T13:08:41.344Z,15.47
2017-12-06T13:13:43.894Z,17.53
2017-12-06T13:18:46.435Z,14.07
2017-12-06T13:23:48.991Z,14.70
2017-12-06T13:28:51.531Z,11.37
2017-12-06T13:33:54.074Z,10.03
2017-12-06T13:38:56.602Z,15.10
2017-12-06T13:43:59.147Z,11.67
2017-12-06T13:49:01.681Z,9.00
2017-12-06T13:54:04.214Z,7.77
2017-12-06T13:59:06.755Z,10.47
2017-12-06T14:04:09.302Z,15.90
2017-12-06T14:09:11.843Z,7.23
2017-12-06T14:14:15.150Z,8.73
2017-12-06T14:19:17.691Z,5.10
2017-12-06T14:24:20.220Z,9.40
2017-12-06T14:29:22.755Z,6.80
2017-12-06T14:34:25.299Z,6.50
2017-12-06T14:39:27.828Z,5.93
2017-12-06T14:44:30.359Z,7.03
2017-12-06T14:49:32.911Z,7.60
2017-12-06T14:54:35.458Z,7.77
2017-12-06T14:59:37.994Z,9.53
2017-12-06T15:04:40.538Z,7.77
2017-12-06T15:09:43.074Z,6.50
2017-12-06T15:14:46.031Z,9.80
2017-12-06T15:19:48.566Z,6.13
2017-12-06T15:24:51.102Z,8.47
2017-12-06T15:29:53.641Z,6.20
2017-12-06T15:34:56.170Z,7.23
2017-12-06T15:39:58.691Z,7.00
2017-12-06T15:45:01.228Z,8.80
2017-12-06T15:50:03.770Z,8.03
2017-12-06T15:55:06.306Z,18.50
2017-12-06T16:00:08.837Z,7.23
2017-12-06T16:05:11.371Z,9.27
2017-12-06T16:10:13.912Z,8.43
2017-12-06T16:15:16.447Z,7.90
2017-12-06T16:20:18.984Z,7.80
2017-12-06T16:25:21.525Z,7.60
2017-12-06T16:30:24.051Z,8.47
2017-12-06T16:35:38.771Z,17.70
2017-12-06T16:40:41.307Z,8.50
2017-12-06T16:45:43.846Z,9.00
2017-12-06T16:50:47.143Z,8.67
2017-12-06T16:55:49.682Z,6.83
2017-12-06T17:00:52.241Z,8.80
2017-12-06T17:05:54.777Z,7.50
2017-12-06T17:10:57.311Z,10.90
2017-12-06T17:16:04.632Z,6.57
2017-12-06T17:21:07.170Z,8.93
2017-12-06T17:26:09.731Z,11.87
2017-12-06T17:31:24.043Z,7.67
2017-12-06T17:36:26.595Z,9.23
2017-12-06T17:41:29.134Z,9.27
2017-12-06T17:46:31.683Z,8.00
2017-12-06T17:51:34.982Z,9.30
2017-12-06T17:56:38.287Z,10.80
2017-12-06T18:01:40.826Z,12.23
2017-12-06T18:06:43.387Z,11.00
2017-12-06T18:11:45.939Z,13.90
2017-12-06T18:16:48.492Z,14.40
2017-12-06T18:21:51.047Z,18.60
2017-12-06T18:26:53.590Z,7.73
2017-12-06T18:31:56.131Z,10.90
2017-12-06T18:36:58.698Z,10.70
2017-12-06T18:42:01.244Z,9.33
2017-12-06T18:47:03.796Z,10.40
2017-12-06T18:52:06.331Z,12.50
2017-12-06T18:57:08.865Z,10.40
2017-12-06T19:02:11.420Z,8.87
2017-12-06T19:07:14.852Z,12.57
2017-12-06T19:12:17.821Z,11.40
2017-12-06T19:17:20.427Z,11.93
2017-12-06T19:22:22.969Z,9.10
2017-12-06T19:27:25.546Z,7.27
2017-12-06T19:32:28.099Z,8.60
2017-12-06T19:37:30.724Z,8.20
2017-12-06T19:42:33.270Z,11.37
2017-12-06T19:47:35.842Z,12.93
2017-12-06T19:52:38.367Z,9.23
2017-12-06T19:57:40.891Z,7.13
2017-12-06T20:02:44.190Z,11.10
2017-12-06T20:07:46.734Z,13.13
2017-12-06T20:12:49.263Z,7.43
2017-12-06T20:17:52.575Z,13.87
2017-12-06T20:22:55.134Z,12.10
2017-12-06T20:27:57.696Z,14.67
2017-12-06T20:33:00.241Z,14.27
2017-12-06T20:38:02.783Z,15.33
2017-12-06T20:43:05.323Z,13.73
2017-12-06T20:48:08.637Z,10.27
2017-12-06T20:53:11.183Z,12.60
2017-12-06T20:58:13.727Z,13.67
2017-12-06T21:03:17.048Z,13.70
2017-12-06T21:08:19.595Z,14.07
2017-12-06T21:13:22.155Z,13.50
2017-12-06T21:18:24.707Z,11.63
2017-12-06T21:23:27.242Z,9.50
2017-12-06T21:28:29.840Z,13.63
2017-12-06T21:33:33.156Z,11.50
2017-12-06T21:38:36.462Z,9.83
2017-12-06T21:43:39.002Z,10.40
2017-12-06T21:48:41.543Z,12.83
2017-12-06T21:53:44.094Z,8.20
2017-12-06T21:58:46.630Z,7.93
2017-12-06T22:03:49.183Z,7.47
2017-12-06T22:08:51.734Z,9.20
2017-12-06T22:13:54.263Z,10.57
2017-12-06T22:18:57.570Z,8.20
2017-12-06T22:24:00.124Z,11.63
2017-12-06T22:29:02.659Z,9.37
2017-12-06T22:34:05.207Z,10.47
2017-12-06T22:39:07.755Z,7.80
2017-12-06T22:44:10.288Z,9.47
2017-12-06T22:49:12.830Z,10.33
2017-12-06T22:54:15.354Z,11.33
2017-12-06T22:59:17.900Z,12.20
2017-12-06T23:04:20.437Z,9.07
2017-12-06T23:09:22.987Z,14.40
2017-12-06T23:14:25.526Z,10.83
2017-12-06T23:19:28.067Z,9.47
2017-12-06T23:24:30.605Z,15.63
2017-12-06T23:29:33.151Z,12.17
2017-12-06T23:34:36.483Z,20.07
2017-12-06T23:39:39.018Z,17.60
2017-12-06T23:44:41.563Z,12.40
2017-12-06T23:49:44.103Z,13.80
2017-12-06T23:54:46.635Z,15.73
2017-12-06T23:59:49.180Z,16.77
